sensor_id;sensor_type;location;lat;lon;timestamp;pressure;altitude;pressure_sealevel;temperature;humidity
63554;BME280;49699;48.072;7.800;2023-01-28T00:01:35;100005.63;;;0.21;74.99
63554;BME280;49699;48.072;7.800;2023-01-28T00:04:00;100003.03;;;0.24;74.99
63554;BME280;49699;48.072;7.800;2023-01-28T00:06:25;100006.44;;;0.24;74.69
63554;BME280;49699;48.072;7.800;2023-01-28T00:08:51;100003.91;;;0.24;74.87
63554;BME280;49699;48.072;7.800;2023-01-28T00:11:16;100009.88;;;0.25;74.77
63554;BME280;49699;48.072;7.800;2023-01-28T00:13:41;100003.88;;;0.26;74.94
63554;BME280;49699;48.072;7.800;2023-01-28T00:16:07;99999.63;;;0.28;74.71
63554;BME280;49699;48.072;7.800;2023-01-28T00:18:34;99999.63;;;0.26;74.83
63554;BME280;49699;48.072;7.800;2023-01-28T00:21:03;100003.91;;;0.24;74.99
63554;BME280;49699;48.072;7.800;2023-01-28T00:23:31;99991.97;;;0.23;74.96
63554;BME280;49699;48.072;7.800;2023-01-28T00:26:04;100006.44;;;0.24;74.79
63554;BME280;49699;48.072;7.800;2023-01-28T00:28:29;99997.94;;;0.24;74.93
63554;BME280;49699;48.072;7.800;2023-01-28T00:30:55;99991.97;;;0.22;75.11
63554;BME280;49699;48.072;7.800;2023-01-28T00:33:21;99991.09;;;0.23;75.04
63554;BME280;49699;48.072;7.800;2023-01-28T00:35:46;99995.34;;;0.25;74.81
63554;BME280;49699;48.072;7.800;2023-01-28T00:38:12;99988.53;;;0.24;74.83
63554;BME280;49699;48.072;7.800;2023-01-28T00:40:37;99995.34;;;0.25;75.24
63554;BME280;49699;48.072;7.800;2023-01-28T00:43:02;99984.28;;;0.22;75.43
63554;BME280;49699;48.072;7.800;2023-01-28T00:45:27;99997.09;;;0.22;75.40
63554;BME280;49699;48.072;7.800;2023-01-28T00:47:53;99995.38;;;0.21;75.59
63554;BME280;49699;48.072;7.800;2023-01-28T00:50:19;99986.84;;;0.19;75.94
63554;BME280;49699;48.072;7.800;2023-01-28T00:52:45;99992.00;;;0.17;76.09
63554;BME280;49699;48.072;7.800;2023-01-28T00:55:11;99996.28;;;0.17;76.33
63554;BME280;49699;48.072;7.800;2023-01-28T00:57:36;99996.31;;;0.14;76.55
63554;BME280;49699;48.072;7.800;2023-01-28T01:00:01;99991.19;;;0.12;76.58
63554;BME280;49699;48.072;7.800;2023-01-28T01:02:27;99996.31;;;0.12;76.72
63554;BME280;49699;48.072;7.800;2023-01-28T01:04:52;99996.31;;;0.14;76.86
63554;BME280;49699;48.072;7.800;2023-01-28T01:07:29;99992.03;;;0.13;76.61
63554;BME280;49699;48.072;7.800;2023-01-28T01:10:06;99997.16;;;0.14;76.58
63554;BME280;49699;48.072;7.800;2023-01-28T01:12:31;99992.03;;;0.16;76.92
63554;BME280;49699;48.072;7.800;2023-01-28T01:14:57;99992.88;;;0.16;76.57
63554;BME280;49699;48.072;7.800;2023-01-28T01:17:22;99987.75;;;0.18;76.42
63554;BME280;49699;48.072;7.800;2023-01-28T01:19:47;99992.00;;;0.17;76.84
63554;BME280;49699;48.072;7.800;2023-01-28T01:22:12;99992.00;;;0.17;76.60
63554;BME280;49699;48.072;7.800;2023-01-28T01:24:39;99991.16;;;0.17;76.78
63554;BME280;49699;48.072;7.800;2023-01-28T01:27:05;99987.75;;;0.18;76.67
63554;BME280;49699;48.072;7.800;2023-01-28T01:29:30;99995.44;;;0.16;76.53
63554;BME280;49699;48.072;7.800;2023-01-28T01:31:58;99987.75;;;0.16;76.63
63554;BME280;49699;48.072;7.800;2023-01-28T01:34:23;99988.63;;;0.15;76.77
63554;BME280;49699;48.072;7.800;2023-01-28T01:36:48;99992.03;;;0.16;76.66
63554;BME280;49699;48.072;7.800;2023-01-28T01:39:14;99989.47;;;0.17;76.73
63554;BME280;49699;48.072;7.800;2023-01-28T01:41:39;99986.00;;;0.20;76.85
63554;BME280;49699;48.072;7.800;2023-01-28T01:44:05;99997.09;;;0.20;76.60
63554;BME280;49699;48.072;7.800;2023-01-28T01:46:38;99986.84;;;0.23;76.37
63554;BME280;49699;48.072;7.800;2023-01-28T01:49:26;99993.66;;;0.26;76.55
63554;BME280;49699;48.072;7.800;2023-01-28T01:51:58;99994.50;;;0.28;76.40
63554;BME280;49699;48.072;7.800;2023-01-28T01:54:27;99993.63;;;0.30;76.42
63554;BME280;49699;48.072;7.800;2023-01-28T01:56:55;99999.59;;;0.32;76.29
63554;BME280;49699;48.072;7.800;2023-01-28T01:59:23;100002.13;;;0.34;76.35
63554;BME280;49699;48.072;7.800;2023-01-28T02:01:50;99997.00;;;0.36;76.25
63554;BME280;49699;48.072;7.800;2023-01-28T02:04:21;99997.81;;;0.38;76.03
63554;BME280;49699;48.072;7.800;2023-01-28T02:06:47;99991.81;;;0.40;76.00
63554;BME280;49699;48.072;7.800;2023-01-28T02:09:24;99995.25;;;0.41;75.78
63554;BME280;49699;48.072;7.800;2023-01-28T02:11:50;99987.56;;;0.41;75.87
63554;BME280;49699;48.072;7.800;2023-01-28T02:14:18;99986.69;;;0.43;75.60
63554;BME280;49699;48.072;7.800;2023-01-28T02:16:46;99988.38;;;0.44;75.66
63554;BME280;49699;48.072;7.800;2023-01-28T02:19:11;99991.78;;;0.46;75.26
63554;BME280;49699;48.072;7.800;2023-01-28T02:27:13;99993.47;;;0.53;75.09
63554;BME280;49699;48.072;7.800;2023-01-28T02:29:45;99984.84;;;0.57;74.68
63554;BME280;49699;48.072;7.800;2023-01-28T02:32:18;99989.97;;;0.60;74.77
63554;BME280;49699;48.072;7.800;2023-01-28T02:34:46;99989.09;;;0.63;74.46
63554;BME280;49699;48.072;7.800;2023-01-28T02:37:21;99994.19;;;0.64;74.30
63554;BME280;49699;48.072;7.800;2023-01-28T02:40:00;99985.69;;;0.62;74.45
63554;BME280;49699;48.072;7.800;2023-01-28T02:42:29;99995.06;;;0.62;74.65
63554;BME280;49699;48.072;7.800;2023-01-28T02:44:54;99992.53;;;0.60;74.80
63554;BME280;49699;48.072;7.800;2023-01-28T02:47:21;100001.06;;;0.59;74.76
63554;BME280;49699;48.072;7.800;2023-01-28T02:50:07;99991.69;;;0.57;74.90
63554;BME280;49699;48.072;7.800;2023-01-28T02:55:22;100000.31;;;0.50;75.09
63554;BME280;49699;48.072;7.800;2023-01-28T02:57:55;100003.72;;;0.49;75.13
63554;BME280;49699;48.072;7.800;2023-01-28T03:00:29;99998.63;;;0.47;75.31
63554;BME280;49699;48.072;7.800;2023-01-28T03:03:00;100014.00;;;0.46;75.58
63554;BME280;49699;48.072;7.800;2023-01-28T03:05:30;100002.91;;;0.45;75.48
63554;BME280;49699;48.072;7.800;2023-01-28T03:07:57;100005.47;;;0.44;75.66
63554;BME280;49699;48.072;7.800;2023-01-28T03:10:24;100008.88;;;0.44;75.86
63554;BME280;49699;48.072;7.800;2023-01-28T03:12:52;100002.06;;;0.43;75.77
63554;BME280;49699;48.072;7.800;2023-01-28T03:15:38;100002.06;;;0.42;75.75
63554;BME280;49699;48.072;7.800;2023-01-28T03:18:24;100002.06;;;0.42;76.00
63554;BME280;49699;48.072;7.800;2023-01-28T03:21:17;100006.34;;;0.38;76.18
63554;BME280;49699;48.072;7.800;2023-01-28T03:27:16;100008.91;;;0.37;76.61
63554;BME280;49699;48.072;7.800;2023-01-28T03:30:10;100003.78;;;0.38;76.61
63554;BME280;49699;48.072;7.800;2023-01-28T03:32:55;100014.09;;;0.35;76.71
63554;BME280;49699;48.072;7.800;2023-01-28T03:35:40;100015.78;;;0.34;76.75
63554;BME280;49699;48.072;7.800;2023-01-28T03:38:25;100017.50;;;0.36;76.77
63554;BME280;49699;48.072;7.800;2023-01-28T03:41:06;100015.78;;;0.34;76.96
63554;BME280;49699;48.072;7.800;2023-01-28T03:43:32;100013.25;;;0.33;77.09
63554;BME280;49699;48.072;7.800;2023-01-28T03:45:59;100008.97;;;0.35;76.93
63554;BME280;49699;48.072;7.800;2023-01-28T03:48:26;100008.06;;;0.36;76.87
63554;BME280;49699;48.072;7.800;2023-01-28T03:50:52;100011.47;;;0.37;76.89
63554;BME280;49699;48.072;7.800;2023-01-28T03:53:18;100019.19;;;0.35;77.05
63554;BME280;49699;48.072;7.800;2023-01-28T03:55:45;100016.59;;;0.37;76.71
63554;BME280;49699;48.072;7.800;2023-01-28T03:58:11;100025.13;;;0.39;76.79
63554;BME280;49699;48.072;7.800;2023-01-28T04:00:37;100019.13;;;0.41;76.63
63554;BME280;49699;48.072;7.800;2023-01-28T04:03:13;100020.84;;;0.42;76.54
63554;BME280;49699;48.072;7.800;2023-01-28T04:06:02;100023.41;;;0.42;76.69
63554;BME280;49699;48.072;7.800;2023-01-28T04:08:48;100023.38;;;0.45;76.64
63554;BME280;49699;48.072;7.800;2023-01-28T04:11:40;100021.66;;;0.47;76.48
63554;BME280;49699;48.072;7.800;2023-01-28T04:14:07;100031.03;;;0.48;76.40
63554;BME280;49699;48.072;7.800;2023-01-28T04:16:52;100028.50;;;0.48;76.11
63554;BME280;49699;48.072;7.800;2023-01-28T04:19:23;100030.19;;;0.49;76.36
63554;BME280;49699;48.072;7.800;2023-01-28T04:21:48;100034.47;;;0.49;76.10
63554;BME280;49699;48.072;7.800;2023-01-28T04:24:14;100035.31;;;0.49;75.88
63554;BME280;49699;48.072;7.800;2023-01-28T04:26:39;100037.88;;;0.51;75.67
63554;BME280;49699;48.072;7.800;2023-01-28T04:29:05;100037.00;;;0.52;75.77
63554;BME280;49699;48.072;7.800;2023-01-28T04:31:32;100044.69;;;0.52;75.74
63554;BME280;49699;48.072;7.800;2023-01-28T04:34:14;100033.59;;;0.51;75.78
63554;BME280;49699;48.072;7.800;2023-01-28T04:36:58;100043.84;;;0.51;75.46
63554;BME280;49699;48.072;7.800;2023-01-28T04:39:39;100049.81;;;0.53;75.50
63554;BME280;49699;48.072;7.800;2023-01-28T04:42:14;100043.81;;;0.53;75.58
63554;BME280;49699;48.072;7.800;2023-01-28T04:44:53;100042.06;;;0.56;75.29
63554;BME280;49699;48.072;7.800;2023-01-28T04:47:44;100050.59;;;0.57;74.98
63554;BME280;49699;48.072;7.800;2023-01-28T04:50:39;100044.63;;;0.56;75.15
63554;BME280;49699;48.072;7.800;2023-01-28T04:53:16;100043.78;;;0.56;74.99
63554;BME280;49699;48.072;7.800;2023-01-28T04:55:58;100050.59;;;0.57;75.02
63554;BME280;49699;48.072;7.800;2023-01-28T04:58:24;100059.13;;;0.60;75.10
63554;BME280;49699;48.072;7.800;2023-01-28T05:00:54;100064.25;;;0.60;74.88
63554;BME280;49699;48.072;7.800;2023-01-28T05:03:20;100057.41;;;0.61;74.57
63554;BME280;49699;48.072;7.800;2023-01-28T05:05:45;100054.00;;;0.60;74.95
63554;BME280;49699;48.072;7.800;2023-01-28T05:08:21;100059.13;;;0.60;74.81
63554;BME280;49699;48.072;7.800;2023-01-28T05:10:47;100055.72;;;0.60;74.90
63554;BME280;49699;48.072;7.800;2023-01-28T05:13:12;100049.75;;;0.58;74.95
63554;BME280;49699;48.072;7.800;2023-01-28T05:15:38;100065.09;;;0.58;75.04
63554;BME280;49699;48.072;7.800;2023-01-28T05:18:03;100061.72;;;0.56;74.91
63554;BME280;49699;48.072;7.800;2023-01-28T05:20:35;100063.44;;;0.54;75.16
63554;BME280;49699;48.072;7.800;2023-01-28T05:23:02;100060.91;;;0.51;75.20
63554;BME280;49699;48.072;7.800;2023-01-28T05:25:38;100075.44;;;0.50;75.46
63554;BME280;49699;48.072;7.800;2023-01-28T05:28:03;100074.59;;;0.47;75.38
63554;BME280;49699;48.072;7.800;2023-01-28T05:30:29;100076.31;;;0.46;75.48
63554;BME280;49699;48.072;7.800;2023-01-28T05:32:55;100078.84;;;0.46;75.42
63554;BME280;49699;48.072;7.800;2023-01-28T05:35:21;100076.31;;;0.46;75.50
63554;BME280;49699;48.072;7.800;2023-01-28T05:37:46;100077.16;;;0.45;75.60
63554;BME280;49699;48.072;7.800;2023-01-28T05:40:12;100077.16;;;0.45;75.42
63554;BME280;49699;48.072;7.800;2023-01-28T05:42:38;100071.19;;;0.45;75.43
63554;BME280;49699;48.072;7.800;2023-01-28T05:45:21;100073.75;;;0.45;75.68
63554;BME280;49699;48.072;7.800;2023-01-28T05:48:13;100079.72;;;0.45;75.66
63554;BME280;49699;48.072;7.800;2023-01-28T05:50:56;100076.31;;;0.46;75.79
63554;BME280;49699;48.072;7.800;2023-01-28T05:53:36;100077.16;;;0.45;75.51
63554;BME280;49699;48.072;7.800;2023-01-28T05:56:02;100088.25;;;0.49;75.51
63554;BME280;49699;48.072;7.800;2023-01-28T05:58:29;100080.56;;;0.49;75.45
63554;BME280;49699;48.072;7.800;2023-01-28T06:00:58;100079.69;;;0.51;75.42
63554;BME280;49699;48.072;7.800;2023-01-28T06:03:29;100077.13;;;0.53;75.42
63554;BME280;49699;48.072;7.800;2023-01-28T06:05:54;100080.50;;;0.55;75.15
63554;BME280;49699;48.072;7.800;2023-01-28T06:08:20;100083.91;;;0.57;74.91
63554;BME280;49699;48.072;7.800;2023-01-28T06:10:45;100083.03;;;0.58;74.81
63554;BME280;49699;48.072;7.800;2023-01-28T06:13:11;100084.72;;;0.60;74.55
63554;BME280;49699;48.072;7.800;2023-01-28T06:15:54;100092.41;;;0.65;74.54
63554;BME280;49699;48.072;7.800;2023-01-28T06:18:22;100086.41;;;0.67;74.27
63554;BME280;49699;48.072;7.800;2023-01-28T06:20:49;100096.63;;;0.71;74.22
63554;BME280;49699;48.072;7.800;2023-01-28T06:23:14;100095.78;;;0.72;73.95
63554;BME280;49699;48.072;7.800;2023-01-28T06:25:39;100096.59;;;0.74;73.80
63554;BME280;49699;48.072;7.800;2023-01-28T06:28:09;100103.41;;;0.76;73.81
63554;BME280;49699;48.072;7.800;2023-01-28T06:30:34;100101.69;;;0.78;73.74
63554;BME280;49699;48.072;7.800;2023-01-28T06:32:59;100111.06;;;0.79;73.52
63554;BME280;49699;48.072;7.800;2023-01-28T06:35:25;100111.91;;;0.81;73.40
63554;BME280;49699;48.072;7.800;2023-01-28T06:37:50;100101.66;;;0.81;73.41
63554;BME280;49699;48.072;7.800;2023-01-28T06:40:16;100105.94;;;0.82;73.51
63554;BME280;49699;48.072;7.800;2023-01-28T06:42:42;100117.03;;;0.83;73.41
63554;BME280;49699;48.072;7.800;2023-01-28T06:45:07;100125.56;;;0.83;73.19
63554;BME280;49699;48.072;7.800;2023-01-28T06:47:32;100123.84;;;0.85;73.49
63554;BME280;49699;48.072;7.800;2023-01-28T06:49:57;100123.84;;;0.87;73.18
63554;BME280;49699;48.072;7.800;2023-01-28T06:52:23;100123.84;;;0.87;73.28
63554;BME280;49699;48.072;7.800;2023-01-28T06:54:48;100130.66;;;0.89;73.13
63554;BME280;49699;48.072;7.800;2023-01-28T06:57:13;100137.47;;;0.90;73.19
63554;BME280;49699;48.072;7.800;2023-01-28T06:59:38;100130.63;;;0.92;72.91
63554;BME280;49699;48.072;7.800;2023-01-28T07:02:04;100133.16;;;0.94;72.61
63554;BME280;49699;48.072;7.800;2023-01-28T07:04:30;100129.72;;;0.96;72.67
63554;BME280;49699;48.072;7.800;2023-01-28T07:06:55;100136.56;;;0.97;72.71
63554;BME280;49699;48.072;7.800;2023-01-28T07:09:20;100132.28;;;0.99;72.80
63554;BME280;49699;48.072;7.800;2023-01-28T07:11:47;100143.38;;;1.01;72.61
63554;BME280;49699;48.072;7.800;2023-01-28T07:14:12;100130.56;;;1.01;72.36
63554;BME280;49699;48.072;7.800;2023-01-28T07:16:37;100144.22;;;1.02;72.51
63554;BME280;49699;48.072;7.800;2023-01-28T07:19:03;100142.50;;;1.04;72.42
63554;BME280;49699;48.072;7.800;2023-01-28T07:21:28;100146.78;;;1.05;72.19
63554;BME280;49699;48.072;7.800;2023-01-28T07:23:53;100150.19;;;1.06;72.44
63554;BME280;49699;48.072;7.800;2023-01-28T07:26:20;100149.34;;;1.05;72.22
63554;BME280;49699;48.072;7.800;2023-01-28T07:28:45;100147.63;;;1.07;72.26
63554;BME280;49699;48.072;7.800;2023-01-28T07:31:10;100160.38;;;1.09;72.32
63554;BME280;49699;48.072;7.800;2023-01-28T07:33:36;100156.13;;;1.09;72.22
63554;BME280;49699;48.072;7.800;2023-01-28T07:36:01;100160.38;;;1.12;72.29
63554;BME280;49699;48.072;7.800;2023-01-28T07:38:26;100164.63;;;1.13;72.07
63554;BME280;49699;48.072;7.800;2023-01-28T07:40:52;100168.91;;;1.12;71.98
63554;BME280;49699;48.072;7.800;2023-01-28T07:43:17;100164.63;;;1.14;72.07
63554;BME280;49699;48.072;7.800;2023-01-28T07:45:42;100171.47;;;1.15;72.03
63554;BME280;49699;48.072;7.800;2023-01-28T07:48:09;100168.91;;;1.15;72.04
63554;BME280;49699;48.072;7.800;2023-01-28T07:50:35;100172.31;;;1.17;71.83
63554;BME280;49699;48.072;7.800;2023-01-28T07:53:02;100177.44;;;1.17;71.97
63554;BME280;49699;48.072;7.800;2023-01-28T07:55:28;100173.16;;;1.18;71.75
63554;BME280;49699;48.072;7.800;2023-01-28T07:57:54;100166.31;;;1.18;71.65
63554;BME280;49699;48.072;7.800;2023-01-28T08:00:20;100173.16;;;1.18;72.10
63554;BME280;49699;48.072;7.800;2023-01-28T08:02:46;100174.88;;;1.17;71.73
63554;BME280;49699;48.072;7.800;2023-01-28T08:05:15;100179.13;;;1.17;72.02
63554;BME280;49699;48.072;7.800;2023-01-28T08:07:41;100177.44;;;1.16;72.08
63554;BME280;49699;48.072;7.800;2023-01-28T08:10:06;100175.72;;;1.16;72.10
63554;BME280;49699;48.072;7.800;2023-01-28T08:12:32;100176.56;;;1.17;72.18
63554;BME280;49699;48.072;7.800;2023-01-28T08:14:57;100174.88;;;1.16;72.10
63554;BME280;49699;48.072;7.800;2023-01-28T08:17:22;100190.25;;;1.19;72.12
63554;BME280;49699;48.072;7.800;2023-01-28T08:19:48;100197.94;;;1.20;72.01
63554;BME280;49699;48.072;7.800;2023-01-28T08:22:13;100191.94;;;1.23;72.15
63554;BME280;49699;48.072;7.800;2023-01-28T08:24:38;100191.94;;;1.23;72.10
63554;BME280;49699;48.072;7.800;2023-01-28T08:27:03;100199.56;;;1.27;71.90
63554;BME280;49699;48.072;7.800;2023-01-28T08:29:29;100197.84;;;1.29;71.75
63554;BME280;49699;48.072;7.800;2023-01-28T08:31:54;100198.69;;;1.31;71.67
63554;BME280;49699;48.072;7.800;2023-01-28T08:34:19;100197.81;;;1.35;71.48
63554;BME280;49699;48.072;7.800;2023-01-28T08:36:44;100196.91;;;1.43;71.47
63554;BME280;49699;48.072;7.800;2023-01-28T08:39:10;100197.69;;;1.48;71.30
63554;BME280;49699;48.072;7.800;2023-01-28T08:41:35;100196.81;;;1.52;71.27
63554;BME280;49699;48.072;7.800;2023-01-28T08:44:00;100203.59;;;1.57;71.06
63554;BME280;49699;48.072;7.800;2023-01-28T08:46:26;100205.28;;;1.60;70.87
63554;BME280;49699;48.072;7.800;2023-01-28T08:48:51;100204.44;;;1.61;70.85
63554;BME280;49699;48.072;7.800;2023-01-28T08:51:16;100204.38;;;1.64;70.42
63554;BME280;49699;48.072;7.800;2023-01-28T08:53:41;100206.09;;;1.65;70.52
63554;BME280;49699;48.072;7.800;2023-01-28T08:56:07;100204.34;;;1.67;70.79
63554;BME280;49699;48.072;7.800;2023-01-28T08:58:32;100212.91;;;1.69;70.38
63554;BME280;49699;48.072;7.800;2023-01-28T09:00:57;100209.44;;;1.71;70.58
63554;BME280;49699;48.072;7.800;2023-01-28T09:03:27;100206.00;;;1.74;70.21
63554;BME280;49699;48.072;7.800;2023-01-28T09:05:52;100211.13;;;1.77;70.31
63554;BME280;49699;48.072;7.800;2023-01-28T09:08:18;100213.63;;;1.82;70.07
63554;BME280;49699;48.072;7.800;2023-01-28T09:10:43;100206.75;;;1.85;69.84
63554;BME280;49699;48.072;7.800;2023-01-28T09:13:13;100205.84;;;1.92;69.77
63554;BME280;49699;48.072;7.800;2023-01-28T09:15:39;100207.47;;;1.98;69.47
63554;BME280;49699;48.072;7.800;2023-01-28T09:18:04;100214.28;;;2.00;69.00
63554;BME280;49699;48.072;7.800;2023-01-28T09:20:29;100216.81;;;2.05;69.01
63554;BME280;49699;48.072;7.800;2023-01-28T09:22:57;100215.06;;;2.10;68.68
63554;BME280;49699;48.072;7.800;2023-01-28T09:25:22;100214.16;;;2.14;68.28
63554;BME280;49699;48.072;7.800;2023-01-28T09:27:47;100210.66;;;2.18;68.32
63554;BME280;49699;48.072;7.800;2023-01-28T09:30:13;100214.06;;;2.22;68.17
63554;BME280;49699;48.072;7.800;2023-01-28T09:32:38;100215.78;;;2.20;67.82
63554;BME280;49699;48.072;7.800;2023-01-28T09:35:03;100219.19;;;2.23;67.88
63554;BME280;49699;48.072;7.800;2023-01-28T09:37:29;100226.00;;;2.27;67.79
63554;BME280;49699;48.072;7.800;2023-01-28T09:39:54;100229.31;;;2.35;67.54
63554;BME280;49699;48.072;7.800;2023-01-28T09:42:26;100227.56;;;2.39;67.28
63554;BME280;49699;48.072;7.800;2023-01-28T09:45:16;100229.25;;;2.40;67.10
63554;BME280;49699;48.072;7.800;2023-01-28T09:47:55;100224.09;;;2.41;66.88
63554;BME280;49699;48.072;7.800;2023-01-28T09:50:30;100224.94;;;2.43;66.94
63554;BME280;49699;48.072;7.800;2023-01-28T09:52:56;100233.44;;;2.50;66.80
63554;BME280;49699;48.072;7.800;2023-01-28T09:55:31;100223.97;;;2.52;66.74
63554;BME280;49699;48.072;7.800;2023-01-28T09:57:57;100225.63;;;2.56;66.51
63554;BME280;49699;48.072;7.800;2023-01-28T10:00:23;100225.59;;;2.59;66.51
63554;BME280;49699;48.072;7.800;2023-01-28T10:16:13;100231.00;;;3.04;65.17
63554;BME280;49699;48.072;7.800;2023-01-28T10:21:23;100215.34;;;3.18;64.80
63554;BME280;49699;48.072;7.800;2023-01-28T10:23:53;100215.19;;;3.28;64.31
63554;BME280;49699;48.072;7.800;2023-01-28T10:26:22;100208.22;;;3.36;64.05
63554;BME280;49699;48.072;7.800;2023-01-28T10:28:51;100214.06;;;3.44;63.83
63554;BME280;49699;48.072;7.800;2023-01-28T10:31:17;100212.22;;;3.53;62.83
63554;BME280;49699;48.072;7.800;2023-01-28T10:33:43;100213.06;;;3.55;62.64
63554;BME280;49699;48.072;7.800;2023-01-28T10:36:09;100214.72;;;3.57;62.05
63554;BME280;49699;48.072;7.800;2023-01-28T10:38:34;100212.09;;;3.59;62.00
63554;BME280;49699;48.072;7.800;2023-01-28T10:41:00;100203.31;;;3.72;61.60
63554;BME280;49699;48.072;7.800;2023-01-28T10:43:28;100204.72;;;3.90;61.04
63554;BME280;49699;48.072;7.800;2023-01-28T10:48:45;100204.00;;;4.68;58.64
63554;BME280;49699;48.072;7.800;2023-01-28T10:51:12;100201.91;;;5.22;57.14
63554;BME280;49699;48.072;7.800;2023-01-28T10:53:40;100194.13;;;5.59;55.88
63554;BME280;49699;48.072;7.800;2023-01-28T10:56:15;100186.56;;;5.85;55.09
63554;BME280;49699;48.072;7.800;2023-01-28T10:59:01;100184.94;;;6.14;54.04
63554;BME280;49699;48.072;7.800;2023-01-28T11:01:40;100186.94;;;6.35;53.46
63554;BME280;49699;48.072;7.800;2023-01-28T11:04:12;100176.19;;;6.49;52.86
63554;BME280;49699;48.072;7.800;2023-01-28T11:06:39;100178.66;;;6.53;52.45
63554;BME280;49699;48.072;7.800;2023-01-28T11:09:18;100174.25;;;6.57;52.33
63554;BME280;49699;48.072;7.800;2023-01-28T11:11:43;100172.97;;;6.70;51.68
63554;BME280;49699;48.072;7.800;2023-01-28T11:14:17;100178.53;;;6.86;50.97
63554;BME280;49699;48.072;7.800;2023-01-28T11:16:43;100176.06;;;6.81;50.64
63554;BME280;49699;48.072;7.800;2023-01-28T11:19:09;100177.81;;;6.81;50.14
63554;BME280;49699;48.072;7.800;2023-01-28T11:21:36;100172.50;;;6.85;49.73
63554;BME280;49699;48.072;7.800;2023-01-28T11:24:02;100178.94;;;7.00;49.63
63554;BME280;49699;48.072;7.800;2023-01-28T11:26:33;100179.72;;;7.30;49.19
63554;BME280;49699;48.072;7.800;2023-01-28T11:28:59;100175.38;;;7.57;48.38
63554;BME280;49699;48.072;7.800;2023-01-28T11:31:24;100174.22;;;7.65;48.08
63554;BME280;49699;48.072;7.800;2023-01-28T11:36:19;100164.28;;;7.27;48.71
63554;BME280;49699;48.072;7.800;2023-01-28T11:38:55;100171.47;;;6.91;49.91
63554;BME280;49699;48.072;7.800;2023-01-28T11:41:24;100166.56;;;6.54;50.78
63554;BME280;49699;48.072;7.800;2023-01-28T11:43:49;100173.69;;;6.16;51.92
63554;BME280;49699;48.072;7.800;2023-01-28T11:48:52;100159.69;;;5.58;53.11
63554;BME280;49699;48.072;7.800;2023-01-28T11:51:35;100169.59;;;5.41;53.57
63554;BME280;49699;48.072;7.800;2023-01-28T11:54:09;100156.19;;;5.27;53.96
63554;BME280;49699;48.072;7.800;2023-01-28T12:04:42;100169.22;;;4.85;54.55
63554;BME280;49699;48.072;7.800;2023-01-28T12:07:16;100171.13;;;4.77;54.75
63554;BME280;49699;48.072;7.800;2023-01-28T12:09:53;100165.31;;;4.68;54.94
63554;BME280;49699;48.072;7.800;2023-01-28T12:12:25;100168.06;;;4.62;55.61
63554;BME280;49699;48.072;7.800;2023-01-28T12:28:25;100174.38;;;4.47;55.66
63554;BME280;49699;48.072;7.800;2023-01-28T12:41:09;100188.72;;;4.17;56.45
63554;BME280;49699;48.072;7.800;2023-01-28T12:43:42;100185.31;;;4.15;56.51
63554;BME280;49699;48.072;7.800;2023-01-28T12:46:11;100185.44;;;4.10;56.91
63554;BME280;49699;48.072;7.800;2023-01-28T12:51:26;100191.53;;;4.06;57.26
63554;BME280;49699;48.072;7.800;2023-01-28T12:54:16;100186.41;;;4.03;57.40
63554;BME280;49699;48.072;7.800;2023-01-28T12:56:41;100184.69;;;4.04;57.62
63554;BME280;49699;48.072;7.800;2023-01-28T12:59:10;100191.66;;;3.99;57.53
63554;BME280;49699;48.072;7.800;2023-01-28T13:01:43;100192.53;;;3.98;57.78
63554;BME280;49699;48.072;7.800;2023-01-28T13:04:12;100192.53;;;3.98;57.99
63554;BME280;49699;48.072;7.800;2023-01-28T13:06:43;100185.63;;;4.00;58.24
63554;BME280;49699;48.072;7.800;2023-01-28T13:09:19;100186.50;;;3.99;57.63
63554;BME280;49699;48.072;7.800;2023-01-28T13:11:45;100191.66;;;3.99;58.19
63554;BME280;49699;48.072;7.800;2023-01-28T13:14:12;100187.31;;;4.01;58.00
63554;BME280;49699;48.072;7.800;2023-01-28T13:16:38;100185.53;;;4.06;58.40
63554;BME280;49699;48.072;7.800;2023-01-28T13:19:08;100190.66;;;4.07;57.57
63554;BME280;49699;48.072;7.800;2023-01-28T13:21:45;100188.97;;;4.05;57.74
63554;BME280;49699;48.072;7.800;2023-01-28T13:29:47;100195.06;;;3.99;58.13
63554;BME280;49699;48.072;7.800;2023-01-28T13:31:57;100197.81;;;3.92;58.32
63554;BME280;49699;48.072;7.800;2023-01-28T13:34:36;100189.38;;;3.83;58.11
63554;BME280;49699;48.072;7.800;2023-01-28T13:37:03;100198.91;;;3.77;58.48
63554;BME280;49699;48.072;7.800;2023-01-28T13:39:29;100201.53;;;3.75;58.93
63554;BME280;49699;48.072;7.800;2023-01-28T13:42:07;100205.00;;;3.74;58.57
63554;BME280;49699;48.072;7.800;2023-01-28T13:44:34;100198.16;;;3.72;58.67
63554;BME280;49699;48.072;7.800;2023-01-28T13:49:44;100202.53;;;3.67;58.79
63554;BME280;49699;48.072;7.800;2023-01-28T13:54:41;100200.81;;;3.67;59.16
63554;BME280;49699;48.072;7.800;2023-01-28T13:57:15;100212.81;;;3.68;59.26
63554;BME280;49699;48.072;7.800;2023-01-28T14:13:08;100209.31;;;3.72;59.38
63554;BME280;49699;48.072;7.800;2023-01-28T14:15:43;100209.38;;;3.69;59.82
63554;BME280;49699;48.072;7.800;2023-01-28T14:18:21;100213.66;;;3.69;59.36
63554;BME280;49699;48.072;7.800;2023-01-28T14:20:49;100215.47;;;3.64;59.70
63554;BME280;49699;48.072;7.800;2023-01-28T14:23:18;100224.03;;;3.64;59.22
63554;BME280;49699;48.072;7.800;2023-01-28T14:31:05;100224.94;;;3.60;59.23
63554;BME280;49699;48.072;7.800;2023-01-28T14:33:33;100234.41;;;3.60;59.25
63554;BME280;49699;48.072;7.800;2023-01-28T14:35:59;100231.88;;;3.58;59.20
63554;BME280;49699;48.072;7.800;2023-01-28T14:38:24;100240.47;;;3.57;58.92
63554;BME280;49699;48.072;7.800;2023-01-28T14:40:50;100246.47;;;3.58;59.47
63554;BME280;49699;48.072;7.800;2023-01-28T14:43:20;100246.38;;;3.61;59.21
63554;BME280;49699;48.072;7.800;2023-01-28T14:48:16;100249.00;;;3.59;59.58
63554;BME280;49699;48.072;7.800;2023-01-28T14:51:06;100243.91;;;3.56;60.21
63554;BME280;49699;48.072;7.800;2023-01-28T14:58:49;100258.63;;;3.46;60.84
63554;BME280;49699;48.072;7.800;2023-01-28T15:01:20;100266.41;;;3.43;60.78